sensor_id;sensor_type;location;lat;lon;timestamp;temperature;humidity
44833;DHT22;30569;51.252;9.830;2024-02-26T00:01:49;0.00;99.90
44833;DHT22;30569;51.252;9.830;2024-02-26T00:04:15;0.00;99.90
44833;DHT22;30569;51.252;9.830;2024-02-26T00:06:40;0.10;99.90
44833;DHT22;30569;51.252;9.830;2024-02-26T00:09:07;0.30;99.90
44833;DHT22;30569;51.252;9.830;2024-02-26T00:11:32;0.60;99.90
44833;DHT22;30569;51.252;9.830;2024-02-26T00:13:58;0.60;99.90
44833;DHT22;30569;51.252;9.830;2024-02-26T00:16:24;0.90;99.90
44833;DHT22;30569;51.252;9.830;2024-02-26T00:18:50;0.70;99.90
44833;DHT22;30569;51.252;9.830;2024-02-26T00:21:15;0.80;99.90
44833;DHT22;30569;51.252;9.830;2024-02-26T00:23:41;0.90;99.90
44833;DHT22;30569;51.252;9.830;2024-02-26T00:26:07;1.40;99.90
44833;DHT22;30569;51.252;9.830;2024-02-26T00:28:33;1.30;99.90
44833;DHT22;30569;51.252;9.830;2024-02-26T00:30:58;1.50;99.90
44833;DHT22;30569;51.252;9.830;2024-02-26T00:33:24;1.60;99.90
44833;DHT22;30569;51.252;9.830;2024-02-26T00:35:50;1.70;99.90
44833;DHT22;30569;51.252;9.830;2024-02-26T00:38:15;1.90;99.90
44833;DHT22;30569;51.252;9.830;2024-02-26T00:40:41;1.90;99.90
44833;DHT22;30569;51.252;9.830;2024-02-26T00:43:07;2.10;99.90
44833;DHT22;30569;51.252;9.830;2024-02-26T00:45:32;2.40;99.90
44833;DHT22;30569;51.252;9.830;2024-02-26T00:47:58;2.00;99.90
44833;DHT22;30569;51.252;9.830;2024-02-26T00:50:26;1.80;99.90
44833;DHT22;30569;51.252;9.830;2024-02-26T00:52:52;1.70;99.90
44833;DHT22;30569;51.252;9.830;2024-02-26T00:55:17;1.70;99.90
44833;DHT22;30569;51.252;9.830;2024-02-26T00:57:43;1.90;99.90
44833;DHT22;30569;51.252;9.830;2024-02-26T01:00:09;1.80;99.90
44833;DHT22;30569;51.252;9.830;2024-02-26T01:02:35;1.80;99.90
44833;DHT22;30569;51.252;9.830;2024-02-26T01:05:00;1.70;99.90
44833;DHT22;30569;51.252;9.830;2024-02-26T01:07:26;1.70;99.90
44833;DHT22;30569;51.252;9.830;2024-02-26T01:09:51;1.50;99.90
44833;DHT22;30569;51.252;9.830;2024-02-26T01:12:17;1.50;99.90
44833;DHT22;30569;51.252;9.830;2024-02-26T01:14:42;1.80;99.90
44833;DHT22;30569;51.252;9.830;2024-02-26T01:17:08;1.80;99.90
44833;DHT22;30569;51.252;9.830;2024-02-26T01:19:34;1.90;99.90
44833;DHT22;30569;51.252;9.830;2024-02-26T01:21:59;1.70;99.90
44833;DHT22;30569;51.252;9.830;2024-02-26T01:24:25;1.80;99.90
44833;DHT22;30569;51.252;9.830;2024-02-26T01:26:50;1.90;99.90
44833;DHT22;30569;51.252;9.830;2024-02-26T01:29:16;2.40;99.90
44833;DHT22;30569;51.252;9.830;2024-02-26T01:31:41;2.10;99.90
44833;DHT22;30569;51.252;9.830;2024-02-26T01:34:07;2.40;99.90
44833;DHT22;30569;51.252;9.830;2024-02-26T01:36:32;2.30;99.90
44833;DHT22;30569;51.252;9.830;2024-02-26T01:38:59;2.50;99.90
44833;DHT22;30569;51.252;9.830;2024-02-26T01:41:25;2.60;99.90
44833;DHT22;30569;51.252;9.830;2024-02-26T01:43:50;2.50;99.90
44833;DHT22;30569;51.252;9.830;2024-02-26T01:46:16;2.60;99.90
44833;DHT22;30569;51.252;9.830;2024-02-26T01:48:44;2.60;99.90
44833;DHT22;30569;51.252;9.830;2024-02-26T01:51:12;2.70;99.90
44833;DHT22;30569;51.252;9.830;2024-02-26T01:53:39;2.60;99.90
44833;DHT22;30569;51.252;9.830;2024-02-26T01:56:05;2.30;99.90
44833;DHT22;30569;51.252;9.830;2024-02-26T01:58:31;2.30;99.90
44833;DHT22;30569;51.252;9.830;2024-02-26T02:00:58;2.40;99.90
44833;DHT22;30569;51.252;9.830;2024-02-26T02:03:24;1.50;99.90
44833;DHT22;30569;51.252;9.830;2024-02-26T02:05:50;1.90;99.90
44833;DHT22;30569;51.252;9.830;2024-02-26T02:10:42;2.30;99.90
44833;DHT22;30569;51.252;9.830;2024-02-26T02:13:08;2.30;99.90
44833;DHT22;30569;51.252;9.830;2024-02-26T02:15:34;2.80;99.90
44833;DHT22;30569;51.252;9.830;2024-02-26T02:18:00;2.50;99.90
44833;DHT22;30569;51.252;9.830;2024-02-26T02:20:35;2.30;99.90
44833;DHT22;30569;51.252;9.830;2024-02-26T02:23:02;2.20;99.90
44833;DHT22;30569;51.252;9.830;2024-02-26T02:25:28;2.60;99.90
44833;DHT22;30569;51.252;9.830;2024-02-26T02:27:54;2.80;99.90
44833;DHT22;30569;51.252;9.830;2024-02-26T02:30:29;2.80;99.90
44833;DHT22;30569;51.252;9.830;2024-02-26T02:32:55;2.60;99.90
44833;DHT22;30569;51.252;9.830;2024-02-26T02:35:22;3.10;99.90
44833;DHT22;30569;51.252;9.830;2024-02-26T02:37:48;2.90;99.90
44833;DHT22;30569;51.252;9.830;2024-02-26T02:40:13;2.60;99.90
44833;DHT22;30569;51.252;9.830;2024-02-26T02:42:39;2.80;99.90
44833;DHT22;30569;51.252;9.830;2024-02-26T02:45:05;2.80;99.90
44833;DHT22;30569;51.252;9.830;2024-02-26T02:49:56;2.80;99.90
44833;DHT22;30569;51.252;9.830;2024-02-26T02:52:22;2.80;99.90
44833;DHT22;30569;51.252;9.830;2024-02-26T02:54:47;2.60;99.90
44833;DHT22;30569;51.252;9.830;2024-02-26T02:57:13;2.40;99.90
44833;DHT22;30569;51.252;9.830;2024-02-26T02:59:39;2.40;99.90
44833;DHT22;30569;51.252;9.830;2024-02-26T03:02:05;2.70;99.90
44833;DHT22;30569;51.252;9.830;2024-02-26T03:04:31;2.70;99.90
44833;DHT22;30569;51.252;9.830;2024-02-26T03:06:57;2.70;99.90
44833;DHT22;30569;51.252;9.830;2024-02-26T03:09:23;2.70;99.90
44833;DHT22;30569;51.252;9.830;2024-02-26T03:11:49;2.90;99.90
44833;DHT22;30569;51.252;9.830;2024-02-26T03:14:14;2.90;99.90
44833;DHT22;30569;51.252;9.830;2024-02-26T03:16:40;2.90;99.90
44833;DHT22;30569;51.252;9.830;2024-02-26T03:19:05;2.70;99.90
44833;DHT22;30569;51.252;9.830;2024-02-26T03:21:31;2.40;99.90
44833;DHT22;30569;51.252;9.830;2024-02-26T03:23:56;2.80;99.90
44833;DHT22;30569;51.252;9.830;2024-02-26T03:26:22;2.80;99.90
44833;DHT22;30569;51.252;9.830;2024-02-26T03:28:48;2.80;99.90
44833;DHT22;30569;51.252;9.830;2024-02-26T03:31:14;2.90;99.90
44833;DHT22;30569;51.252;9.830;2024-02-26T03:33:40;3.10;99.90
44833;DHT22;30569;51.252;9.830;2024-02-26T03:36:05;3.20;99.90
44833;DHT22;30569;51.252;9.830;2024-02-26T03:38:33;3.20;99.90
44833;DHT22;30569;51.252;9.830;2024-02-26T03:40:58;3.40;99.90
44833;DHT22;30569;51.252;9.830;2024-02-26T03:43:24;3.30;99.90
44833;DHT22;30569;51.252;9.830;2024-02-26T03:45:50;3.20;99.90
44833;DHT22;30569;51.252;9.830;2024-02-26T03:48:15;3.20;99.90
44833;DHT22;30569;51.252;9.830;2024-02-26T03:50:41;3.70;99.90
44833;DHT22;30569;51.252;9.830;2024-02-26T03:53:06;3.70;99.90
44833;DHT22;30569;51.252;9.830;2024-02-26T03:55:34;3.80;99.90
44833;DHT22;30569;51.252;9.830;2024-02-26T03:58:00;4.00;99.90
44833;DHT22;30569;51.252;9.830;2024-02-26T04:00:26;4.20;99.90
44833;DHT22;30569;51.252;9.830;2024-02-26T04:02:51;4.30;99.90
44833;DHT22;30569;51.252;9.830;2024-02-26T04:07:43;4.60;99.90
44833;DHT22;30569;51.252;9.830;2024-02-26T04:10:12;4.60;99.90
44833;DHT22;30569;51.252;9.830;2024-02-26T04:12:42;4.60;99.90
44833;DHT22;30569;51.252;9.830;2024-02-26T04:15:08;4.90;99.90
44833;DHT22;30569;51.252;9.830;2024-02-26T04:17:34;4.80;99.90
44833;DHT22;30569;51.252;9.830;2024-02-26T04:20:00;5.00;99.90
44833;DHT22;30569;51.252;9.830;2024-02-26T04:22:26;4.90;99.90
44833;DHT22;30569;51.252;9.830;2024-02-26T04:24:51;5.00;99.90
44833;DHT22;30569;51.252;9.830;2024-02-26T04:27:17;5.00;99.90
44833;DHT22;30569;51.252;9.830;2024-02-26T04:29:42;5.10;99.90
44833;DHT22;30569;51.252;9.830;2024-02-26T04:32:08;5.00;99.90
44833;DHT22;30569;51.252;9.830;2024-02-26T04:34:33;4.60;99.90
44833;DHT22;30569;51.252;9.830;2024-02-26T04:36:59;4.40;99.90
44833;DHT22;30569;51.252;9.830;2024-02-26T04:39:25;4.40;99.90
44833;DHT22;30569;51.252;9.830;2024-02-26T04:41:51;4.50;99.90
44833;DHT22;30569;51.252;9.830;2024-02-26T04:44:17;4.50;99.90
44833;DHT22;30569;51.252;9.830;2024-02-26T04:46:42;4.40;99.90
44833;DHT22;30569;51.252;9.830;2024-02-26T04:49:08;4.40;99.90
44833;DHT22;30569;51.252;9.830;2024-02-26T04:51:33;4.50;99.90
44833;DHT22;30569;51.252;9.830;2024-02-26T04:53:59;4.70;99.90
44833;DHT22;30569;51.252;9.830;2024-02-26T04:56:24;4.70;99.90
44833;DHT22;30569;51.252;9.830;2024-02-26T04:58:50;4.90;99.90
44833;DHT22;30569;51.252;9.830;2024-02-26T05:01:16;4.50;99.90
44833;DHT22;30569;51.252;9.830;2024-02-26T05:03:42;4.50;99.90
44833;DHT22;30569;51.252;9.830;2024-02-26T05:06:08;3.60;99.90
44833;DHT22;30569;51.252;9.830;2024-02-26T05:08:34;3.80;99.90
44833;DHT22;30569;51.252;9.830;2024-02-26T05:11:02;3.70;99.90
44833;DHT22;30569;51.252;9.830;2024-02-26T05:13:28;3.70;99.90
44833;DHT22;30569;51.252;9.830;2024-02-26T05:15:54;3.70;99.90
44833;DHT22;30569;51.252;9.830;2024-02-26T05:18:20;3.70;99.90
44833;DHT22;30569;51.252;9.830;2024-02-26T05:20:45;3.80;99.90
44833;DHT22;30569;51.252;9.830;2024-02-26T05:23:11;3.80;99.90
44833;DHT22;30569;51.252;9.830;2024-02-26T05:25:37;3.50;99.90
44833;DHT22;30569;51.252;9.830;2024-02-26T05:30:28;3.80;99.90
44833;DHT22;30569;51.252;9.830;2024-02-26T05:32:54;3.80;99.90
44833;DHT22;30569;51.252;9.830;2024-02-26T05:35:20;3.20;99.90
44833;DHT22;30569;51.252;9.830;2024-02-26T05:37:45;3.40;99.90
44833;DHT22;30569;51.252;9.830;2024-02-26T05:40:11;3.20;99.90
44833;DHT22;30569;51.252;9.830;2024-02-26T05:42:37;3.20;99.90
44833;DHT22;30569;51.252;9.830;2024-02-26T05:45:03;3.30;99.90
44833;DHT22;30569;51.252;9.830;2024-02-26T05:47:35;3.70;99.90
44833;DHT22;30569;51.252;9.830;2024-02-26T05:50:01;3.70;99.90
44833;DHT22;30569;51.252;9.830;2024-02-26T05:52:27;3.90;99.90
44833;DHT22;30569;51.252;9.830;2024-02-26T05:54:57;3.90;99.90
44833;DHT22;30569;51.252;9.830;2024-02-26T05:57:22;3.90;99.90
44833;DHT22;30569;51.252;9.830;2024-02-26T05:59:49;4.20;99.90
44833;DHT22;30569;51.252;9.830;2024-02-26T06:02:14;4.20;99.90
44833;DHT22;30569;51.252;9.830;2024-02-26T06:04:40;4.20;99.90
44833;DHT22;30569;51.252;9.830;2024-02-26T06:07:06;4.30;99.90
44833;DHT22;30569;51.252;9.830;2024-02-26T06:09:32;4.20;99.90
44833;DHT22;30569;51.252;9.830;2024-02-26T06:11:57;4.40;99.90
44833;DHT22;30569;51.252;9.830;2024-02-26T06:14:23;4.50;99.90
44833;DHT22;30569;51.252;9.830;2024-02-26T06:16:48;4.70;99.90
44833;DHT22;30569;51.252;9.830;2024-02-26T06:19:14;4.60;99.90
44833;DHT22;30569;51.252;9.830;2024-02-26T06:21:40;4.70;99.90
44833;DHT22;30569;51.252;9.830;2024-02-26T06:24:06;5.00;99.90
44833;DHT22;30569;51.252;9.830;2024-02-26T06:26:31;4.40;99.90
44833;DHT22;30569;51.252;9.830;2024-02-26T06:28:58;4.30;99.90
44833;DHT22;30569;51.252;9.830;2024-02-26T06:31:24;4.40;99.90
44833;DHT22;30569;51.252;9.830;2024-02-26T06:33:53;4.50;99.90
44833;DHT22;30569;51.252;9.830;2024-02-26T06:36:19;4.60;99.90
44833;DHT22;30569;51.252;9.830;2024-02-26T06:38:44;4.60;99.90
44833;DHT22;30569;51.252;9.830;2024-02-26T06:41:10;4.70;99.90
44833;DHT22;30569;51.252;9.830;2024-02-26T06:43:36;4.70;99.90
44833;DHT22;30569;51.252;9.830;2024-02-26T06:46:02;4.80;99.90
44833;DHT22;30569;51.252;9.830;2024-02-26T06:48:28;4.80;99.90
44833;DHT22;30569;51.252;9.830;2024-02-26T06:50:53;4.80;99.90
44833;DHT22;30569;51.252;9.830;2024-02-26T06:53:19;4.80;99.90
44833;DHT22;30569;51.252;9.830;2024-02-26T06:55:44;4.80;99.90
44833;DHT22;30569;51.252;9.830;2024-02-26T06:58:10;4.70;99.90
44833;DHT22;30569;51.252;9.830;2024-02-26T07:00:36;4.70;99.90
44833;DHT22;30569;51.252;9.830;2024-02-26T07:03:01;4.80;99.90
44833;DHT22;30569;51.252;9.830;2024-02-26T07:05:28;4.70;99.90
44833;DHT22;30569;51.252;9.830;2024-02-26T07:07:54;4.30;99.90
44833;DHT22;30569;51.252;9.830;2024-02-26T07:10:20;3.90;99.90
44833;DHT22;30569;51.252;9.830;2024-02-26T07:12:46;3.80;99.90
44833;DHT22;30569;51.252;9.830;2024-02-26T07:15:12;3.80;99.90
44833;DHT22;30569;51.252;9.830;2024-02-26T07:17:37;3.70;99.90
44833;DHT22;30569;51.252;9.830;2024-02-26T07:20:05;3.70;99.90
44833;DHT22;30569;51.252;9.830;2024-02-26T07:22:31;3.80;99.90
44833;DHT22;30569;51.252;9.830;2024-02-26T07:24:57;3.80;99.90
44833;DHT22;30569;51.252;9.830;2024-02-26T07:27:23;4.10;99.90
44833;DHT22;30569;51.252;9.830;2024-02-26T07:29:48;4.10;99.90
44833;DHT22;30569;51.252;9.830;2024-02-26T07:32:14;4.10;99.90
44833;DHT22;30569;51.252;9.830;2024-02-26T07:34:40;4.40;99.90
44833;DHT22;30569;51.252;9.830;2024-02-26T07:37:11;4.60;99.90
44833;DHT22;30569;51.252;9.830;2024-02-26T07:39:36;4.70;99.90
44833;DHT22;30569;51.252;9.830;2024-02-26T07:42:02;4.70;99.90
44833;DHT22;30569;51.252;9.830;2024-02-26T07:44:28;4.90;99.90
44833;DHT22;30569;51.252;9.830;2024-02-26T07:46:54;4.90;99.90
44833;DHT22;30569;51.252;9.830;2024-02-26T07:49:19;4.70;99.90
44833;DHT22;30569;51.252;9.830;2024-02-26T07:51:45;4.90;99.90
44833;DHT22;30569;51.252;9.830;2024-02-26T07:54:11;5.00;99.90
44833;DHT22;30569;51.252;9.830;2024-02-26T07:56:36;4.90;99.90
44833;DHT22;30569;51.252;9.830;2024-02-26T07:59:02;5.20;99.90
44833;DHT22;30569;51.252;9.830;2024-02-26T08:01:27;5.00;99.90
44833;DHT22;30569;51.252;9.830;2024-02-26T08:03:53;5.00;99.90
44833;DHT22;30569;51.252;9.830;2024-02-26T08:06:19;5.20;99.90
44833;DHT22;30569;51.252;9.830;2024-02-26T08:08:44;5.20;99.90
44833;DHT22;30569;51.252;9.830;2024-02-26T08:11:10;5.10;99.90
44833;DHT22;30569;51.252;9.830;2024-02-26T08:13:36;5.10;99.90
44833;DHT22;30569;51.252;9.830;2024-02-26T08:16:01;5.20;99.90
44833;DHT22;30569;51.252;9.830;2024-02-26T08:18:27;5.40;99.90
44833;DHT22;30569;51.252;9.830;2024-02-26T08:20:53;5.20;99.90
44833;DHT22;30569;51.252;9.830;2024-02-26T08:23:18;5.30;99.90
44833;DHT22;30569;51.252;9.830;2024-02-26T08:25:44;5.30;99.90
44833;DHT22;30569;51.252;9.830;2024-02-26T08:28:09;5.10;99.90
44833;DHT22;30569;51.252;9.830;2024-02-26T08:30:38;5.60;99.90
44833;DHT22;30569;51.252;9.830;2024-02-26T08:33:04;5.70;99.90
44833;DHT22;30569;51.252;9.830;2024-02-26T08:35:30;5.80;99.90
44833;DHT22;30569;51.252;9.830;2024-02-26T08:37:55;5.90;99.90
44833;DHT22;30569;51.252;9.830;2024-02-26T08:40:21;6.10;99.90
44833;DHT22;30569;51.252;9.830;2024-02-26T08:42:46;6.30;99.90
44833;DHT22;30569;51.252;9.830;2024-02-26T08:45:12;6.70;99.90
44833;DHT22;30569;51.252;9.830;2024-02-26T08:47:38;6.90;99.90
44833;DHT22;30569;51.252;9.830;2024-02-26T08:50:04;7.20;99.90
44833;DHT22;30569;51.252;9.830;2024-02-26T08:52:30;7.20;99.90
44833;DHT22;30569;51.252;9.830;2024-02-26T08:54:56;7.00;99.90
44833;DHT22;30569;51.252;9.830;2024-02-26T08:57:22;7.10;99.90
44833;DHT22;30569;51.252;9.830;2024-02-26T08:59:48;7.80;99.90
44833;DHT22;30569;51.252;9.830;2024-02-26T09:02:13;7.70;99.90
44833;DHT22;30569;51.252;9.830;2024-02-26T09:04:39;7.90;99.90
44833;DHT22;30569;51.252;9.830;2024-02-26T09:07:04;8.10;99.90
44833;DHT22;30569;51.252;9.830;2024-02-26T09:09:31;8.30;99.90
44833;DHT22;30569;51.252;9.830;2024-02-26T09:11:56;8.60;99.90
44833;DHT22;30569;51.252;9.830;2024-02-26T09:14:22;8.40;99.90
44833;DHT22;30569;51.252;9.830;2024-02-26T09:16:48;9.00;99.90
44833;DHT22;30569;51.252;9.830;2024-02-26T09:19:17;9.20;99.90
44833;DHT22;30569;51.252;9.830;2024-02-26T09:21:46;9.50;99.70
44833;DHT22;30569;51.252;9.830;2024-02-26T09:24:12;9.30;99.20
44833;DHT22;30569;51.252;9.830;2024-02-26T09:26:38;9.50;98.90
44833;DHT22;30569;51.252;9.830;2024-02-26T09:29:04;9.60;98.90
44833;DHT22;30569;51.252;9.830;2024-02-26T09:31:30;9.20;98.50
44833;DHT22;30569;51.252;9.830;2024-02-26T09:33:56;9.00;99.80
44833;DHT22;30569;51.252;9.830;2024-02-26T09:36:21;9.40;99.90
44833;DHT22;30569;51.252;9.830;2024-02-26T09:38:48;9.30;98.90
44833;DHT22;30569;51.252;9.830;2024-02-26T09:41:16;9.70;98.80
44833;DHT22;30569;51.252;9.830;2024-02-26T09:43:44;9.50;98.60
44833;DHT22;30569;51.252;9.830;2024-02-26T09:46:13;8.90;99.50
44833;DHT22;30569;51.252;9.830;2024-02-26T09:48:42;9.00;99.70
44833;DHT22;30569;51.252;9.830;2024-02-26T09:51:10;9.60;98.70
44833;DHT22;30569;51.252;9.830;2024-02-26T09:53:38;9.80;98.80
44833;DHT22;30569;51.252;9.830;2024-02-26T09:56:08;9.50;98.50
44833;DHT22;30569;51.252;9.830;2024-02-26T09:58:34;10.00;97.80
44833;DHT22;30569;51.252;9.830;2024-02-26T10:01:02;10.30;96.40
44833;DHT22;30569;51.252;9.830;2024-02-26T10:03:34;10.40;97.50
44833;DHT22;30569;51.252;9.830;2024-02-26T10:06:00;10.70;97.10
44833;DHT22;30569;51.252;9.830;2024-02-26T10:08:28;10.70;97.20
44833;DHT22;30569;51.252;9.830;2024-02-26T10:10:55;10.30;96.50
44833;DHT22;30569;51.252;9.830;2024-02-26T10:13:20;10.20;97.30
44833;DHT22;30569;51.252;9.830;2024-02-26T10:15:46;10.50;97.10
44833;DHT22;30569;51.252;9.830;2024-02-26T10:18:12;10.60;97.50
44833;DHT22;30569;51.252;9.830;2024-02-26T10:20:37;11.10;95.30
44833;DHT22;30569;51.252;9.830;2024-02-26T10:23:03;11.60;95.40
44833;DHT22;30569;51.252;9.830;2024-02-26T10:25:30;12.40;94.20
44833;DHT22;30569;51.252;9.830;2024-02-26T10:28:00;12.50;92.60
44833;DHT22;30569;51.252;9.830;2024-02-26T10:30:29;12.80;93.80
44833;DHT22;30569;51.252;9.830;2024-02-26T10:32:56;12.80;93.80
44833;DHT22;30569;51.252;9.830;2024-02-26T10:35:22;12.80;93.40
44833;DHT22;30569;51.252;9.830;2024-02-26T10:37:48;12.80;93.80
44833;DHT22;30569;51.252;9.830;2024-02-26T10:40:15;12.90;92.70
44833;DHT22;30569;51.252;9.830;2024-02-26T10:42:41;12.90;92.70
44833;DHT22;30569;51.252;9.830;2024-02-26T10:45:08;12.60;93.10
44833;DHT22;30569;51.252;9.830;2024-02-26T10:47:35;12.00;93.30
44833;DHT22;30569;51.252;9.830;2024-02-26T10:50:02;11.80;93.90
44833;DHT22;30569;51.252;9.830;2024-02-26T10:52:34;11.60;93.80
44833;DHT22;30569;51.252;9.830;2024-02-26T10:55:02;11.00;95.40
44833;DHT22;30569;51.252;9.830;2024-02-26T10:57:33;10.70;96.00
44833;DHT22;30569;51.252;9.830;2024-02-26T11:00:00;10.60;95.90
44833;DHT22;30569;51.252;9.830;2024-02-26T11:02:33;10.80;96.00
44833;DHT22;30569;51.252;9.830;2024-02-26T11:05:02;10.70;95.10
44833;DHT22;30569;51.252;9.830;2024-02-26T11:07:29;10.80;96.30
44833;DHT22;30569;51.252;9.830;2024-02-26T11:09:56;9.80;96.60
44833;DHT22;30569;51.252;9.830;2024-02-26T11:12:22;9.80;96.90
44833;DHT22;30569;51.252;9.830;2024-02-26T11:14:50;10.00;97.30
44833;DHT22;30569;51.252;9.830;2024-02-26T11:17:21;9.90;97.50
44833;DHT22;30569;51.252;9.830;2024-02-26T11:19:49;9.80;96.90
44833;DHT22;30569;51.252;9.830;2024-02-26T11:22:15;9.80;97.10
44833;DHT22;30569;51.252;9.830;2024-02-26T11:24:41;9.60;97.60
44833;DHT22;30569;51.252;9.830;2024-02-26T11:27:10;9.30;97.90
44833;DHT22;30569;51.252;9.830;2024-02-26T11:29:43;9.30;98.30
44833;DHT22;30569;51.252;9.830;2024-02-26T11:32:10;9.10;98.20
44833;DHT22;30569;51.252;9.830;2024-02-26T11:34:36;8.90;98.50
44833;DHT22;30569;51.252;9.830;2024-02-26T11:37:16;8.90;98.90
44833;DHT22;30569;51.252;9.830;2024-02-26T11:39:43;8.80;99.10
44833;DHT22;30569;51.252;9.830;2024-02-26T11:42:14;8.70;99.10
44833;DHT22;30569;51.252;9.830;2024-02-26T11:44:39;8.90;99.20
44833;DHT22;30569;51.252;9.830;2024-02-26T11:47:17;9.30;98.80
44833;DHT22;30569;51.252;9.830;2024-02-26T11:49:43;9.00;98.50
44833;DHT22;30569;51.252;9.830;2024-02-26T11:52:10;8.90;98.80
44833;DHT22;30569;51.252;9.830;2024-02-26T11:54:47;9.20;98.70
44833;DHT22;30569;51.252;9.830;2024-02-26T11:57:23;9.10;98.80
44833;DHT22;30569;51.252;9.830;2024-02-26T11:59:49;9.50;98.60
44833;DHT22;30569;51.252;9.830;2024-02-26T12:05:11;9.40;98.80
44833;DHT22;30569;51.252;9.830;2024-02-26T12:07:39;9.30;98.30
44833;DHT22;30569;51.252;9.830;2024-02-26T12:10:27;9.20;98.50
44833;DHT22;30569;51.252;9.830;2024-02-26T12:13:10;9.20;98.60
44833;DHT22;30569;51.252;9.830;2024-02-26T12:15:40;9.30;98.60
44833;DHT22;30569;51.252;9.830;2024-02-26T12:18:07;9.60;98.50
44833;DHT22;30569;51.252;9.830;2024-02-26T12:20:33;9.80;98.50
44833;DHT22;30569;51.252;9.830;2024-02-26T12:22:59;9.80;98.10
44833;DHT22;30569;51.252;9.830;2024-02-26T12:25:27;9.90;97.90
44833;DHT22;30569;51.252;9.830;2024-02-26T12:27:54;9.40;98.50
44833;DHT22;30569;51.252;9.830;2024-02-26T12:30:20;9.40;98.50
44833;DHT22;30569;51.252;9.830;2024-02-26T12:32:47;9.50;98.40
44833;DHT22;30569;51.252;9.830;2024-02-26T12:35:14;9.80;98.80
44833;DHT22;30569;51.252;9.830;2024-02-26T12:37:40;9.40;98.60
44833;DHT22;30569;51.252;9.830;2024-02-26T12:40:07;9.10;98.90
44833;DHT22;30569;51.252;9.830;2024-02-26T12:42:34;9.10;99.10
44833;DHT22;30569;51.252;9.830;2024-02-26T12:45:08;9.40;99.20
44833;DHT22;30569;51.252;9.830;2024-02-26T12:47:45;9.30;98.60
44833;DHT22;30569;51.252;9.830;2024-02-26T12:50:17;9.10;98.80
44833;DHT22;30569;51.252;9.830;2024-02-26T12:52:47;9.10;98.90
44833;DHT22;30569;51.252;9.830;2024-02-26T12:55:18;9.30;98.50
44833;DHT22;30569;51.252;9.830;2024-02-26T12:57:45;9.50;98.70
44833;DHT22;30569;51.252;9.830;2024-02-26T13:00:14;9.50;98.00
44833;DHT22;30569;51.252;9.830;2024-02-26T13:02:41;9.50;98.70
44833;DHT22;30569;51.252;9.830;2024-02-26T13:05:10;9.40;98.80
44833;DHT22;30569;51.252;9.830;2024-02-26T13:07:44;9.50;98.90
44833;DHT22;30569;51.252;9.830;2024-02-26T13:10:11;9.40;98.40
44833;DHT22;30569;51.252;9.830;2024-02-26T13:12:42;9.40;98.70
44833;DHT22;30569;51.252;9.830;2024-02-26T13:15:13;9.20;98.90
44833;DHT22;30569;51.252;9.830;2024-02-26T13:17:39;9.20;98.90
44833;DHT22;30569;51.252;9.830;2024-02-26T13:20:05;9.40;99.00
44833;DHT22;30569;51.252;9.830;2024-02-26T13:22:31;9.40;99.20
44833;DHT22;30569;51.252;9.830;2024-02-26T13:24:59;9.40;99.00
44833;DHT22;30569;51.252;9.830;2024-02-26T13:27:25;9.60;98.70
44833;DHT22;30569;51.252;9.830;2024-02-26T13:30:11;9.90;98.50
44833;DHT22;30569;51.252;9.830;2024-02-26T13:32:40;9.70;98.60
44833;DHT22;30569;51.252;9.830;2024-02-26T13:35:10;9.60;99.10
44833;DHT22;30569;51.252;9.830;2024-02-26T13:37:37;9.40;99.40
44833;DHT22;30569;51.252;9.830;2024-02-26T13:40:07;9.50;99.10
44833;DHT22;30569;51.252;9.830;2024-02-26T13:42:34;9.50;99.20
44833;DHT22;30569;51.252;9.830;2024-02-26T13:45:00;9.40;99.80
44833;DHT22;30569;51.252;9.830;2024-02-26T13:47:25;9.50;99.50
44833;DHT22;30569;51.252;9.830;2024-02-26T13:49:51;9.50;99.20
44833;DHT22;30569;51.252;9.830;2024-02-26T13:52:16;9.50;99.40
44833;DHT22;30569;51.252;9.830;2024-02-26T13:54:42;9.30;99.50
44833;DHT22;30569;51.252;9.830;2024-02-26T13:57:08;8.90;99.90
44833;DHT22;30569;51.252;9.830;2024-02-26T13:59:34;8.90;99.90
44833;DHT22;30569;51.252;9.830;2024-02-26T14:02:00;8.90;99.90
44833;DHT22;30569;51.252;9.830;2024-02-26T14:04:25;9.20;99.90
44833;DHT22;30569;51.252;9.830;2024-02-26T14:06:51;9.20;99.90
44833;DHT22;30569;51.252;9.830;2024-02-26T14:09:17;9.20;99.60
44833;DHT22;30569;51.252;9.830;2024-02-26T14:11:48;9.10;99.40
44833;DHT22;30569;51.252;9.830;2024-02-26T14:14:13;8.70;99.90
44833;DHT22;30569;51.252;9.830;2024-02-26T14:16:39;8.70;99.90
44833;DHT22;30569;51.252;9.830;2024-02-26T14:19:05;8.70;99.90
44833;DHT22;30569;51.252;9.830;2024-02-26T14:21:30;8.90;99.90
44833;DHT22;30569;51.252;9.830;2024-02-26T14:23:56;9.20;99.90
44833;DHT22;30569;51.252;9.830;2024-02-26T14:26:24;8.90;99.60
44833;DHT22;30569;51.252;9.830;2024-02-26T14:28:50;8.70;99.90
44833;DHT22;30569;51.252;9.830;2024-02-26T14:31:19;8.60;99.90
44833;DHT22;30569;51.252;9.830;2024-02-26T14:33:44;8.80;99.90
44833;DHT22;30569;51.252;9.830;2024-02-26T14:36:10;8.80;99.90
44833;DHT22;30569;51.252;9.830;2024-02-26T14:38:37;9.10;99.80
44833;DHT22;30569;51.252;9.830;2024-02-26T14:41:04;9.00;99.80
44833;DHT22;30569;51.252;9.830;2024-02-26T14:43:29;9.00;99.60
44833;DHT22;30569;51.252;9.830;2024-02-26T14:45:57;9.30;99.70
44833;DHT22;30569;51.252;9.830;2024-02-26T14:48:22;9.30;99.50
44833;DHT22;30569;51.252;9.830;2024-02-26T14:50:49;9.60;98.90
44833;DHT22;30569;51.252;9.830;2024-02-26T14:53:16;9.60;99.20
44833;DHT22;30569;51.252;9.830;2024-02-26T14:55:42;9.50;98.70
44833;DHT22;30569;51.252;9.830;2024-02-26T14:58:08;9.60;98.80
44833;DHT22;30569;51.252;9.830;2024-02-26T15:00:36;9.70;98.50
44833;DHT22;30569;51.252;9.830;2024-02-26T15:03:02;9.80;99.00
44833;DHT22;30569;51.252;9.830;2024-02-26T15:05:28;9.80;98.30
44833;DHT22;30569;51.252;9.830;2024-02-26T15:07:54;9.50;98.90
44833;DHT22;30569;51.252;9.830;2024-02-26T15:10:19;9.00;99.50
44833;DHT22;30569;51.252;9.830;2024-02-26T15:12:45;9.20;99.50
44833;DHT22;30569;51.252;9.830;2024-02-26T15:15:10;9.20;99.70
44833;DHT22;30569;51.252;9.830;2024-02-26T15:17:36;9.10;99.90
44833;DHT22;30569;51.252;9.830;2024-02-26T15:20:02;9.40;99.40
44833;DHT22;30569;51.252;9.830;2024-02-26T15:22:28;9.40;99.50
44833;DHT22;30569;51.252;9.830;2024-02-26T15:24:53;9.80;99.10
44833;DHT22;30569;51.252;9.830;2024-02-26T15:27:19;9.80;99.10
44833;DHT22;30569;51.252;9.830;2024-02-26T15:29:45;9.60;99.10
44833;DHT22;30569;51.252;9.830;2024-02-26T15:32:11;9.40;99.10
44833;DHT22;30569;51.252;9.830;2024-02-26T15:34:37;9.50;99.60
44833;DHT22;30569;51.252;9.830;2024-02-26T15:37:03;9.70;99.10
44833;DHT22;30569;51.252;9.830;2024-02-26T15:39:29;9.70;99.30
44833;DHT22;30569;51.252;9.830;2024-02-26T15:41:54;9.70;98.90
44833;DHT22;30569;51.252;9.830;2024-02-26T15:44:20;9.70;99.10
44833;DHT22;30569;51.252;9.830;2024-02-26T15:46:45;9.40;99.50
44833;DHT22;30569;51.252;9.830;2024-02-26T15:49:11;9.50;99.90
44833;DHT22;30569;51.252;9.830;2024-02-26T15:51:36;9.40;98.80
44833;DHT22;30569;51.252;9.830;2024-02-26T15:54:02;9.00;99.90